Time;durP1;ratioP1;P1;durP2;ratioP2;P2;SDS_P1;SDS_P2;PMS_P1;PMS_P2;Temp;Humidity;BMP_temperature;BMP_pressure;BME280_temperature;BME280_humidity;BME280_pressure;Samples;Min_cycle;Max_cycle;Signal;HPM_P1;HPM_P2
2024/03/10 00:00:17;;;;;;;14.47;7.10;;;8.60;98.00;;;;;;5015126;28;20461;-67
2024/03/10 00:02:45;;;;;;;14.20;6.33;;;8.50;98.00;;;;;;5015120;28;20457;-66
2024/03/10 00:05:13;;;;;;;16.40;6.87;;;8.40;98.00;;;;;;5015174;28;21049;-67
2024/03/10 00:07:42;;;;;;;13.60;6.47;;;8.30;98.00;;;;;;5014793;28;20554;-67
2024/03/10 00:10:10;;;;;;;14.27;6.60;;;8.20;98.00;;;;;;5014417;28;20978;-67
2024/03/10 00:12:39;;;;;;;13.73;6.20;;;8.20;98.00;;;;;;5015015;28;20452;-67
2024/03/10 00:15:08;;;;;;;13.30;6.00;;;8.20;98.00;;;;;;5014244;28;20448;-67
2024/03/10 00:17:36;;;;;;;14.90;6.50;;;8.10;98.00;;;;;;5014795;28;20450;-67
2024/03/10 00:20:04;;;;;;;11.03;5.53;;;7.90;98.00;;;;;;5014743;28;20539;-67
2024/03/10 00:22:31;;;;;;;11.93;6.10;;;7.90;98.00;;;;;;5013939;28;20455;-67
2024/03/10 00:24:58;;;;;;;14.10;6.40;;;7.80;98.00;;;;;;5014324;28;20612;-67
2024/03/10 00:27:27;;;;;;;13.77;6.20;;;7.90;98.00;;;;;;4997306;28;20917;-67
2024/03/10 00:29:54;;;;;;;13.90;6.07;;;7.80;98.00;;;;;;5014385;28;20449;-67
2024/03/10 00:32:21;;;;;;;11.80;5.73;;;7.80;98.00;;;;;;5014027;28;20449;-67
2024/03/10 00:34:49;;;;;;;16.07;6.20;;;7.80;98.00;;;;;;5014160;28;20461;-66
2024/03/10 00:37:16;;;;;;;12.80;5.57;;;7.80;98.00;;;;;;4996504;28;20450;-67
2024/03/10 00:39:51;;;;;;;10.77;5.63;;;7.80;98.00;;;;;;5014239;28;20476;-67
2024/03/10 00:42:20;;;;;;;15.60;6.10;;;7.70;98.00;;;;;;5014132;28;20467;-68
2024/03/10 00:44:47;;;;;;;12.87;6.20;;;7.80;98.00;;;;;;5013775;28;20992;-67
2024/03/10 00:47:15;;;;;;;10.13;5.00;;;7.90;98.00;;;;;;5013873;28;20488;-67
2024/03/10 00:49:42;;;;;;;12.97;5.47;;;7.90;98.00;;;;;;4996530;28;20991;-67
2024/03/10 00:52:10;;;;;;;10.90;4.80;;;8.00;98.00;;;;;;5013983;28;20540;-66
2024/03/10 00:54:38;;;;;;;12.10;5.57;;;7.90;98.00;;;;;;5013732;28;20845;-67
2024/03/10 00:57:06;;;;;;;14.10;5.83;;;7.90;98.00;;;;;;5013841;28;20455;-67
2024/03/10 00:59:34;;;;;;;13.73;6.30;;;7.90;98.00;;;;;;5013920;28;20953;-67
2024/03/10 01:02:01;;;;;;;10.90;5.20;;;7.90;98.00;;;;;;5013836;28;20458;-67
2024/03/10 01:04:29;;;;;;;14.27;5.87;;;7.90;98.00;;;;;;5013426;28;20457;-66
2024/03/10 01:06:57;;;;;;;12.70;5.30;;;7.90;98.00;;;;;;5013350;28;20586;-66
2024/03/10 01:09:27;;;;;;;11.60;5.40;;;7.80;98.00;;;;;;5013717;28;20491;-67
2024/03/10 01:11:54;;;;;;;14.97;5.87;;;7.80;98.00;;;;;;5013704;28;20459;-67
2024/03/10 01:14:21;;;;;;;15.23;5.63;;;7.70;98.00;;;;;;5013606;28;20448;-67
2024/03/10 01:16:50;;;;;;;11.37;5.60;;;7.70;98.00;;;;;;4995779;28;20460;-67
2024/03/10 01:19:17;;;;;;;10.47;5.30;;;7.80;98.00;;;;;;5013296;28;20460;-67
2024/03/10 01:21:45;;;;;;;11.60;5.63;;;7.90;98.00;;;;;;4996014;28;20454;-67
2024/03/10 01:24:16;;;;;;;10.80;5.10;;;7.90;98.00;;;;;;5013312;28;20497;-67
2024/03/10 01:26:44;;;;;;;10.50;5.17;;;7.90;98.00;;;;;;5012692;28;20495;-66
2024/03/10 01:29:12;;;;;;;12.47;5.80;;;7.90;98.00;;;;;;5013109;28;20459;-67
2024/03/10 01:31:42;;;;;;;11.50;5.20;;;7.80;98.00;;;;;;5013291;28;20949;-67
2024/03/10 01:34:09;;;;;;;10.67;5.07;;;7.80;98.00;;;;;;5013110;28;20451;-67
2024/03/10 01:36:37;;;;;;;8.50;4.50;;;7.80;98.00;;;;;;5013140;28;20534;-68
2024/03/10 01:39:04;;;;;;;11.20;5.07;;;7.90;98.00;;;;;;5012962;28;20472;-67
2024/03/10 01:41:33;;;;;;;10.73;5.20;;;7.90;98.00;;;;;;5013015;28;20448;-67
2024/03/10 01:44:01;;;;;;;9.00;4.63;;;7.80;98.00;;;;;;5012723;28;20449;-67
2024/03/10 01:46:29;;;;;;;9.00;4.70;;;7.90;98.00;;;;;;5012888;28;20502;-67
2024/03/10 01:48:56;;;;;;;9.00;4.70;;;8.00;98.00;;;;;;4995391;28;20465;-66
2024/03/10 01:51:23;;;;;;;10.37;4.80;;;8.10;98.00;;;;;;5012902;28;20797;-67
2024/03/10 01:53:55;;;;;;;9.60;5.00;;;8.10;98.00;;;;;;5012834;28;20474;-67
2024/03/10 01:56:22;;;;;;;8.83;4.50;;;8.10;98.00;;;;;;5012925;28;20462;-67
2024/03/10 01:58:51;;;;;;;11.57;5.20;;;8.00;98.00;;;;;;5012476;28;20934;-67
2024/03/10 02:01:21;;;;;;;10.73;4.73;;;7.80;98.00;;;;;;5012753;28;20483;-67
2024/03/10 02:03:50;;;;;;;10.00;4.87;;;7.70;98.00;;;;;;5012902;28;20487;-67
2024/03/10 02:06:17;;;;;;;9.90;4.67;;;7.80;98.00;;;;;;5012877;28;20969;-67
2024/03/10 02:08:46;;;;;;;8.77;4.80;;;7.80;98.00;;;;;;4995263;28;20455;-67
2024/03/10 02:11:14;;;;;;;11.77;5.30;;;7.70;98.00;;;;;;5013107;28;20451;-67
2024/03/10 02:13:41;;;;;;;12.70;4.97;;;7.60;98.00;;;;;;5012375;28;20872;-67
2024/03/10 02:16:10;;;;;;;9.40;4.77;;;7.60;98.00;;;;;;5012339;28;20488;-67
2024/03/10 02:18:38;;;;;;;9.80;5.20;;;7.50;98.00;;;;;;5012550;28;20456;-67
2024/03/10 02:21:08;;;;;;;9.10;4.77;;;7.50;98.00;;;;;;5012368;28;20450;-67
2024/03/10 02:23:41;;;;;;;11.20;4.67;;;7.50;98.00;;;;;;5012367;28;20869;-67
2024/03/10 02:26:10;;;;;;;8.27;4.10;;;7.50;98.00;;;;;;5012319;28;20459;-67
2024/03/10 02:28:46;;;;;;;8.37;4.47;;;7.60;98.00;;;;;;5012142;28;20539;-67
2024/03/10 02:47:42;;;;;;;8.73;4.30;;;7.80;98.00;;;;;;5011920;28;20486;-67
2024/03/10 02:50:10;;;;;;;8.23;4.20;;;7.80;98.00;;;;;;5011900;28;20880;-67
2024/03/10 02:52:38;;;;;;;8.17;3.87;;;7.80;98.00;;;;;;5011957;28;20545;-67
2024/03/10 02:55:08;;;;;;;9.50;4.27;;;7.90;98.00;;;;;;5011827;28;20460;-67
2024/03/10 02:57:37;;;;;;;7.33;3.63;;;7.90;98.00;;;;;;4994958;28;20444;-67
2024/03/10 03:00:09;;;;;;;8.53;4.23;;;7.90;98.00;;;;;;5011772;28;20450;-67
2024/03/10 03:02:36;;;;;;;7.40;3.77;;;8.00;98.00;;;;;;5011982;28;20455;-67
2024/03/10 03:05:04;;;;;;;10.10;3.83;;;8.00;98.00;;;;;;5011781;28;20455;-67
2024/03/10 03:07:31;;;;;;;7.23;3.80;;;8.10;98.00;;;;;;5011984;28;20493;-67
2024/03/10 03:09:59;;;;;;;10.30;4.13;;;8.10;98.00;;;;;;5011648;28;20446;-66
2024/03/10 03:12:26;;;;;;;7.47;3.77;;;8.00;98.00;;;;;;4994432;28;20983;-67
2024/03/10 03:14:55;;;;;;;9.23;3.80;;;8.00;98.00;;;;;;5011729;28;20452;-67
2024/03/10 03:17:23;;;;;;;8.93;4.23;;;8.00;98.00;;;;;;5011922;28;20452;-67
2024/03/10 03:19:50;;;;;;;10.27;4.30;;;8.00;98.00;;;;;;5011752;28;20454;-67
2024/03/10 03:22:17;;;;;;;7.87;4.27;;;8.00;98.00;;;;;;5011720;28;20454;-67
2024/03/10 03:24:45;;;;;;;8.10;4.27;;;8.00;98.00;;;;;;5010745;28;20460;-67
2024/03/10 03:27:13;;;;;;;7.90;4.40;;;8.00;98.00;;;;;;5011520;28;20522;-67
2024/03/10 03:29:40;;;;;;;6.87;3.70;;;8.00;98.00;;;;;;5011514;28;20456;-67
2024/03/10 03:32:09;;;;;;;7.50;4.40;;;8.10;98.00;;;;;;5011642;28;20456;-67
2024/03/10 03:34:38;;;;;;;7.70;3.87;;;8.00;98.00;;;;;;5011627;28;20450;-68
2024/03/10 03:37:06;;;;;;;6.10;3.50;;;8.00;98.00;;;;;;5011521;28;20449;-67
2024/03/10 03:39:35;;;;;;;7.70;3.93;;;8.00;98.00;;;;;;5011459;28;20453;-67
2024/03/10 03:42:02;;;;;;;7.90;4.13;;;8.00;98.00;;;;;;5011418;28;20515;-67
2024/03/10 03:44:29;;;;;;;7.07;3.90;;;7.80;98.00;;;;;;5011459;28;20458;-68
2024/03/10 03:46:58;;;;;;;7.60;3.80;;;7.70;98.00;;;;;;5011433;28;20503;-67
2024/03/10 03:49:28;;;;;;;7.27;3.63;;;7.70;98.00;;;;;;5011642;28;20795;-67
2024/03/10 03:51:55;;;;;;;9.33;3.87;;;7.60;98.00;;;;;;5015111;28;20992;-67
2024/03/10 03:54:22;;;;;;;5.63;3.33;;;7.60;98.00;;;;;;5014879;28;20449;-67
2024/03/10 03:56:49;;;;;;;8.60;3.87;;;7.50;98.00;;;;;;5015145;28;20462;-67
2024/03/10 03:59:17;;;;;;;6.47;3.27;;;7.50;98.00;;;;;;5015153;28;20550;-67
2024/03/10 04:01:44;;;;;;;8.60;4.10;;;7.50;98.00;;;;;;5014953;28;20548;-67
2024/03/10 04:04:12;;;;;;;7.23;3.80;;;7.40;98.00;;;;;;5014773;28;20463;-67
2024/03/10 04:06:41;;;;;;;7.63;4.17;;;7.40;98.00;;;;;;5014927;28;20448;-67
2024/03/10 04:09:08;;;;;;;9.00;3.90;;;7.50;98.00;;;;;;5014558;28;20490;-67
2024/03/10 04:11:35;;;;;;;6.03;3.47;;;7.60;98.00;;;;;;5014305;28;20483;-66
2024/03/10 04:14:02;;;;;;;6.47;3.40;;;7.50;98.00;;;;;;5014402;28;20952;-67
2024/03/10 04:16:30;;;;;;;6.63;3.90;;;7.50;98.00;;;;;;5014631;28;20454;-67
2024/03/10 04:18:58;;;;;;;7.37;3.83;;;7.60;98.00;;;;;;5014194;28;21027;-67
2024/03/10 04:21:26;;;;;;;6.23;3.37;;;7.50;98.00;;;;;;5014193;28;20505;-66
2024/03/10 04:23:54;;;;;;;7.33;3.27;;;7.40;98.00;;;;;;5013904;28;20992;-67
2024/03/10 04:26:23;;;;;;;6.67;3.43;;;7.40;98.00;;;;;;5014046;28;20460;-67
2024/03/10 04:28:50;;;;;;;7.70;3.40;;;7.40;98.00;;;;;;5013548;28;20541;-67
2024/03/10 04:31:18;;;;;;;6.27;3.40;;;7.50;98.00;;;;;;5002351;28;20447;-68
2024/03/10 04:33:45;;;;;;;6.37;3.30;;;7.30;98.00;;;;;;4993924;28;20547;-67
2024/03/10 04:36:12;;;;;;;6.70;3.37;;;7.20;98.00;;;;;;4994545;28;20459;-67
2024/03/10 04:38:39;;;;;;;4.50;2.83;;;7.20;98.00;;;;;;4994423;28;20463;-66
2024/03/10 04:41:08;;;;;;;4.63;2.97;;;7.20;98.00;;;;;;4994515;28;20559;-67
2024/03/10 04:43:35;;;;;;;5.00;3.10;;;7.20;98.00;;;;;;4994200;28;20462;-67
2024/03/10 04:46:03;;;;;;;5.53;3.00;;;7.20;98.00;;;;;;4994298;28;20523;-67
2024/03/10 04:48:30;;;;;;;5.60;3.07;;;7.20;98.00;;;;;;4976887;28;20571;-67
2024/03/10 04:50:57;;;;;;;6.90;3.40;;;7.10;98.00;;;;;;4994082;28;20456;-66
2024/03/10 04:53:25;;;;;;;7.10;3.43;;;7.10;98.00;;;;;;4994279;28;20511;-67
2024/03/10 04:55:52;;;;;;;12.27;4.80;;;7.10;98.00;;;;;;4993348;28;20462;-67
2024/03/10 04:58:22;;;;;;;17.70;5.80;;;7.20;98.00;;;;;;4994179;28;20528;-67
2024/03/10 05:00:49;;;;;;;11.00;4.80;;;7.30;98.00;;;;;;4993641;28;20494;-66
2024/03/10 05:03:16;;;;;;;12.30;4.30;;;7.40;98.00;;;;;;4993470;28;20483;-67
2024/03/10 05:05:44;;;;;;;8.13;3.53;;;7.50;98.00;;;;;;4993987;28;20946;-67
2024/03/10 05:08:11;;;;;;;9.57;3.40;;;7.40;98.00;;;;;;4994110;28;20486;-67
2024/03/10 05:10:38;;;;;;;5.87;3.30;;;7.60;98.00;;;;;;4993887;28;20452;-67
2024/03/10 05:13:05;;;;;;;8.00;3.43;;;7.60;98.00;;;;;;4993941;28;20468;-67
2024/03/10 05:15:33;;;;;;;7.20;3.30;;;7.60;98.00;;;;;;4993890;28;20451;-66
2024/03/10 05:18:01;;;;;;;5.87;3.13;;;7.70;98.00;;;;;;4993918;28;20456;-67
2024/03/10 05:20:28;;;;;;;5.93;3.10;;;7.80;98.00;;;;;;4993809;28;20453;-67
2024/03/10 05:22:55;;;;;;;4.60;2.80;;;7.80;98.00;;;;;;4993816;28;20467;-66
2024/03/10 05:25:23;;;;;;;7.10;3.60;;;7.80;98.00;;;;;;4993730;28;20453;-67
2024/03/10 05:27:51;;;;;;;6.77;3.40;;;7.70;98.00;;;;;;4993622;28;20484;-67
2024/03/10 05:30:18;;;;;;;6.40;3.87;;;7.70;98.00;;;;;;4993608;28;20456;-67
2024/03/10 05:32:47;;;;;;;8.43;3.53;;;7.70;98.00;;;;;;4993681;28;20451;-67
2024/03/10 05:35:14;;;;;;;7.40;3.07;;;7.60;98.00;;;;;;4993611;28;20506;-66
2024/03/10 05:37:42;;;;;;;5.57;2.97;;;7.50;98.00;;;;;;4976405;28;20808;-66
2024/03/10 05:40:11;;;;;;;8.23;3.50;;;7.50;98.00;;;;;;4993437;28;20484;-67
2024/03/10 05:42:38;;;;;;;8.27;3.67;;;7.50;98.00;;;;;;4993521;28;20458;-67
2024/03/10 05:45:07;;;;;;;5.33;3.20;;;7.60;98.00;;;;;;4993401;28;20456;-67
2024/03/10 05:47:34;;;;;;;5.27;3.10;;;7.70;98.00;;;;;;4993356;28;20481;-67
2024/03/10 05:50:03;;;;;;;5.70;2.97;;;7.60;98.00;;;;;;4993270;28;20523;-67
2024/03/10 05:52:30;;;;;;;6.77;3.27;;;7.60;98.00;;;;;;4993080;28;20555;-67
2024/03/10 05:54:57;;;;;;;6.40;3.40;;;7.50;98.00;;;;;;4993093;28;20477;-66
2024/03/10 05:57:24;;;;;;;5.10;2.77;;;7.50;98.00;;;;;;4993180;28;20456;-66
2024/03/10 05:59:52;;;;;;;5.70;2.63;;;7.40;98.00;;;;;;4992856;28;20449;-67
2024/03/10 06:02:19;;;;;;;5.50;3.37;;;7.40;98.00;;;;;;4993112;28;20572;-66
2024/03/10 06:04:46;;;;;;;5.43;3.00;;;7.30;98.00;;;;;;4992946;28;20466;-67
2024/03/10 06:07:14;;;;;;;5.47;3.20;;;7.30;98.00;;;;;;4992991;28;20444;-67
2024/03/10 06:09:41;;;;;;;5.23;3.10;;;7.30;98.00;;;;;;4975302;28;20453;-67
2024/03/10 06:12:09;;;;;;;5.33;3.20;;;7.30;98.00;;;;;;4992634;28;20931;-67
2024/03/10 06:14:37;;;;;;;5.17;3.20;;;7.20;98.00;;;;;;4992419;28;20449;-67
2024/03/10 06:17:08;;;;;;;4.90;2.80;;;7.30;98.00;;;;;;4992512;28;20959;-67
2024/03/10 06:25:27;;;;;;;4.80;3.10;;;7.30;98.00;;;;;;4992491;28;20436;-66
2024/03/10 06:27:56;;;;;;;5.90;3.23;;;7.40;98.00;;;;;;4992267;28;21142;-66
2024/03/10 06:30:23;;;;;;;8.60;3.63;;;7.40;98.00;;;;;;4992284;28;21009;-66
2024/03/10 06:32:51;;;;;;;7.20;3.37;;;7.50;98.00;;;;;;4992359;28;20920;-67
2024/03/10 06:35:19;;;;;;;7.33;3.50;;;7.50;98.00;;;;;;4992321;28;20456;-67
2024/03/10 06:37:48;;;;;;;9.67;3.30;;;7.60;98.00;;;;;;4992343;28;20465;-67
2024/03/10 06:40:16;;;;;;;5.40;3.37;;;7.60;98.00;;;;;;4992319;28;20460;-67
2024/03/10 06:42:44;;;;;;;4.80;3.20;;;7.60;98.00;;;;;;4992110;28;20452;-66
2024/03/10 06:45:12;;;;;;;5.90;3.00;;;7.60;98.00;;;;;;4991890;28;20444;-67
2024/03/10 06:47:41;;;;;;;5.50;3.23;;;7.70;98.00;;;;;;4992060;28;20512;-67
2024/03/10 06:50:09;;;;;;;6.43;2.73;;;7.70;98.00;;;;;;4992162;28;20549;-66
2024/03/10 06:52:38;;;;;;;5.70;3.07;;;7.70;98.00;;;;;;4991806;28;20519;-67
2024/03/10 06:55:08;;;;;;;6.40;3.00;;;7.70;98.00;;;;;;4974731;28;20464;-67
2024/03/10 06:57:38;;;;;;;5.10;3.30;;;7.80;98.00;;;;;;4992573;28;20487;-66
2024/03/10 07:00:08;;;;;;;7.33;3.50;;;7.70;98.00;;;;;;4992362;28;20452;-66
2024/03/10 07:02:35;;;;;;;8.33;3.90;;;7.80;98.00;;;;;;4992487;28;20488;-66
2024/03/10 07:05:04;;;;;;;12.60;4.73;;;7.90;98.00;;;;;;4992371;28;20457;-64
2024/03/10 07:07:32;;;;;;;9.97;5.00;;;8.00;98.00;;;;;;4992137;28;20482;-65
2024/03/10 07:09:59;;;;;;;10.63;4.67;;;8.10;98.00;;;;;;4992363;28;20460;-65
2024/03/10 07:12:28;;;;;;;9.20;4.40;;;8.30;98.00;;;;;;4992395;28;20594;-64
2024/03/10 07:14:57;;;;;;;9.00;4.17;;;8.10;98.00;;;;;;4992383;28;20459;-64
2024/03/10 07:17:24;;;;;;;6.40;3.43;;;8.30;98.00;;;;;;4992402;28;20460;-64
2024/03/10 07:19:52;;;;;;;8.00;4.37;;;8.20;98.00;;;;;;4992217;28;20507;-65
2024/03/10 07:22:19;;;;;;;7.80;3.97;;;8.20;98.00;;;;;;4992418;28;20460;-65
2024/03/10 07:24:46;;;;;;;8.23;3.73;;;8.10;98.00;;;;;;4992994;28;20455;-65
2024/03/10 07:27:14;;;;;;;13.37;3.90;;;8.20;98.00;;;;;;4996268;28;20467;-66
2024/03/10 07:29:44;;;;;;;7.27;3.80;;;8.10;98.00;;;;;;4978367;28;20472;-65
2024/03/10 07:32:11;;;;;;;7.33;3.20;;;8.20;98.00;;;;;;4996143;28;20449;-65
2024/03/10 07:34:39;;;;;;;6.40;3.50;;;8.20;98.00;;;;;;4996058;28;20941;-64
2024/03/10 07:37:06;;;;;;;6.97;3.73;;;8.10;98.00;;;;;;4996078;28;20495;-65
2024/03/10 07:39:33;;;;;;;5.57;3.20;;;8.10;98.00;;;;;;4995605;28;20452;-66
2024/03/10 07:42:00;;;;;;;5.67;3.00;;;8.00;98.00;;;;;;4995577;28;20452;-64
2024/03/10 07:44:28;;;;;;;5.63;3.30;;;8.10;98.00;;;;;;4995677;28;20449;-65
2024/03/10 07:46:59;;;;;;;8.60;3.63;;;8.00;98.00;;;;;;4995756;28;20497;-64
2024/03/10 07:49:26;;;;;;;6.53;3.57;;;8.00;98.00;;;;;;4995098;28;20505;-65
2024/03/10 07:51:53;;;;;;;4.83;3.20;;;8.10;98.00;;;;;;4995470;28;20459;-64
2024/03/10 07:54:21;;;;;;;6.90;3.50;;;8.20;98.00;;;;;;4995345;28;20461;-64
2024/03/10 07:56:54;;;;;;;6.00;3.50;;;8.30;98.00;;;;;;5003026;28;20541;-65
2024/03/10 07:59:21;;;;;;;5.63;3.50;;;8.30;98.00;;;;;;5014325;28;20452;-65
2024/03/10 08:01:49;;;;;;;6.40;3.57;;;8.50;98.00;;;;;;5014536;28;20482;-64
2024/03/10 08:04:17;;;;;;;6.73;3.80;;;8.60;98.00;;;;;;5014772;28;20842;-64
2024/03/10 08:06:45;;;;;;;5.23;3.43;;;8.80;98.00;;;;;;5014655;28;20467;-65
2024/03/10 08:09:15;;;;;;;8.00;4.10;;;8.90;98.00;;;;;;5014923;28;20485;-64
2024/03/10 08:11:42;;;;;;;5.97;3.47;;;9.10;98.00;;;;;;5014813;28;20540;-65
2024/03/10 08:14:10;;;;;;;6.00;3.43;;;9.30;98.00;;;;;;5014203;28;21041;-66
2024/03/10 08:16:38;;;;;;;4.83;2.40;;;9.60;98.00;;;;;;4997468;28;20508;-64
2024/03/10 08:19:05;;;;;;;5.37;2.70;;;9.80;98.00;;;;;;5014140;28;20841;-65
2024/03/10 08:21:33;;;;;;;3.20;2.47;;;10.00;98.00;;;;;;5014641;28;20873;-64
2024/03/10 08:24:00;;;;;;;3.90;2.33;;;10.30;98.00;;;;;;4996902;28;20452;-65
2024/03/10 08:26:28;;;;;;;4.53;2.60;;;10.30;98.00;;;;;;5014455;28;20444;-64
2024/03/10 08:28:55;;;;;;;4.73;2.70;;;10.40;98.00;;;;;;5014082;28;20514;-64
2024/03/10 08:31:22;;;;;;;3.23;2.30;;;10.50;98.00;;;;;;5014476;28;20448;-64
2024/03/10 08:33:49;;;;;;;3.77;2.50;;;10.70;98.00;;;;;;5014252;28;20454;-65
2024/03/10 08:36:16;;;;;;;3.97;2.57;;;10.70;98.00;;;;;;5196326;22;20434;-65
2024/03/10 08:38:45;;;;;;;3.73;2.43;;;10.80;98.00;;;;;;4954899;29;20465;-65
2024/03/10 08:41:12;;;;;;;3.90;2.30;;;10.80;98.00;;;;;;4955085;28;20454;-64
2024/03/10 08:43:39;;;;;;;3.60;2.20;;;10.90;98.00;;;;;;4955288;29;20841;-64
2024/03/10 08:46:15;;;;;;;5.03;2.37;;;10.90;98.00;;;;;;4954367;28;20497;-65
2024/03/10 08:48:44;;;;;;;4.20;2.67;;;10.80;98.00;;;;;;4955508;29;21003;-64
2024/03/10 08:51:12;;;;;;;6.13;2.33;;;10.90;98.00;;;;;;4938483;29;20451;-65
2024/03/10 08:53:40;;;;;;;3.97;2.53;;;11.00;98.00;;;;;;4954927;28;20459;-64
2024/03/10 08:56:09;;;;;;;4.20;2.37;;;11.00;98.00;;;;;;4953914;29;20498;-64
2024/03/10 08:58:36;;;;;;;2.90;2.10;;;11.10;98.00;;;;;;4954311;29;20459;-64
2024/03/10 09:01:06;;;;;;;5.80;2.50;;;11.30;98.00;;;;;;4954567;29;20547;-65
2024/03/10 09:03:34;;;;;;;4.30;2.70;;;11.30;98.00;;;;;;4954596;29;20463;-64
2024/03/10 09:06:09;;;;;;;4.70;2.50;;;11.40;98.00;;;;;;4954336;28;20945;-65
2024/03/10 09:08:36;;;;;;;3.33;2.30;;;11.40;98.00;;;;;;4937285;29;20486;-63
2024/03/10 09:11:06;;;;;;;3.30;2.40;;;11.40;98.00;;;;;;4954030;29;20465;-65
2024/03/10 09:13:35;;;;;;;3.33;2.37;;;11.50;98.00;;;;;;4954177;29;20460;-65
2024/03/10 09:16:03;;;;;;;3.60;2.40;;;11.40;98.00;;;;;;4954131;29;20451;-66
2024/03/10 09:18:30;;;;;;;4.50;2.47;;;11.50;98.00;;;;;;4954540;29;20453;-64
2024/03/10 09:20:57;;;;;;;2.67;2.10;;;11.40;98.00;;;;;;4953942;29;20960;-64
2024/03/10 09:23:25;;;;;;;3.37;2.33;;;11.50;98.00;;;;;;4953862;29;20456;-64
2024/03/10 09:25:54;;;;;;;2.80;2.13;;;11.50;98.00;;;;;;4954262;28;20457;-64
2024/03/10 09:28:22;;;;;;;3.60;2.20;;;11.50;98.00;;;;;;4954492;29;21049;-65
2024/03/10 09:30:50;;;;;;;4.10;2.50;;;11.80;98.00;;;;;;4954246;29;20468;-65
2024/03/10 09:33:18;;;;;;;3.37;2.40;;;11.90;98.00;;;;;;4954250;29;20478;-65
2024/03/10 09:35:45;;;;;;;3.60;2.20;;;11.90;98.00;;;;;;4953947;29;20461;-65
2024/03/10 09:38:12;;;;;;;7.23;3.00;;;12.10;98.00;;;;;;4953211;29;20838;-65
2024/03/10 09:40:39;;;;;;;4.80;2.90;;;12.30;98.00;;;;;;4953993;29;20856;-65
2024/03/10 09:43:11;;;;;;;4.13;2.37;;;12.50;98.00;;;;;;4953827;29;20863;-63
2024/03/10 09:45:43;;;;;;;6.40;3.17;;;12.50;98.00;;;;;;4953640;29;20467;-64
2024/03/10 09:48:18;;;;;;;5.60;2.80;;;12.40;98.00;;;;;;4953178;28;20563;-63
2024/03/10 09:50:49;;;;;;;5.73;2.90;;;12.50;98.00;;;;;;4953653;29;20467;-65
2024/03/10 09:53:17;;;;;;;6.50;2.70;;;12.60;98.00;;;;;;4953813;29;20464;-65
2024/03/10 09:55:45;;;;;;;4.50;2.93;;;12.70;98.00;;;;;;4936742;29;20461;-65
2024/03/10 09:58:14;;;;;;;3.87;2.60;;;12.80;98.00;;;;;;4936656;29;20483;-65
2024/03/10 10:00:45;;;;;;;4.70;2.87;;;12.80;98.00;;;;;;4953613;29;20453;-64
2024/03/10 10:03:15;;;;;;;4.90;2.77;;;12.70;98.00;;;;;;4953550;29;21121;-65
2024/03/10 10:05:46;;;;;;;3.67;2.50;;;12.60;98.00;;;;;;4953627;29;20939;-66
2024/03/10 10:08:13;;;;;;;3.87;2.40;;;12.70;98.00;;;;;;4951983;29;20468;-65
2024/03/10 10:10:42;;;;;;;3.60;2.63;;;12.60;98.00;;;;;;4952174;29;20547;-66
2024/03/10 10:13:20;;;;;;;8.17;2.40;;;12.70;98.00;;;;;;4952879;29;20476;-65
2024/03/10 10:15:48;;;;;;;3.20;2.00;;;12.70;98.00;;;;;;4952785;29;20463;-65
2024/03/10 10:18:17;;;;;;;3.17;2.27;;;12.60;98.00;;;;;;4953786;29;20452;-66
2024/03/10 10:20:47;;;;;;;3.27;2.40;;;12.70;98.00;;;;;;4953502;29;20861;-65
2024/03/10 10:23:15;;;;;;;4.33;2.70;;;12.80;98.00;;;;;;4953327;29;20500;-66
2024/03/10 10:25:45;;;;;;;3.53;2.47;;;12.70;98.00;;;;;;4953355;29;20457;-65
2024/03/10 10:28:14;;;;;;;4.43;2.40;;;12.70;98.00;;;;;;4953228;29;20468;-66
2024/03/10 10:30:44;;;;;;;4.30;2.63;;;12.70;98.00;;;;;;4953294;29;20495;-66
2024/03/10 10:33:14;;;;;;;3.93;2.37;;;12.70;98.00;;;;;;4953589;29;20457;-65
2024/03/10 10:35:45;;;;;;;4.37;2.20;;;12.80;98.00;;;;;;4953231;29;20452;-65
2024/03/10 10:38:13;;;;;;;3.33;2.23;;;12.80;98.00;;;;;;4953114;29;20468;-65
2024/03/10 10:40:41;;;;;;;3.63;2.00;;;12.90;98.00;;;;;;4953702;29;20464;-65
2024/03/10 10:43:10;;;;;;;3.30;2.43;;;13.00;98.00;;;;;;4953954;28;20457;-66
2024/03/10 10:45:37;;;;;;;2.83;2.20;;;13.10;98.00;;;;;;4953515;28;20491;-66
2024/03/10 10:48:07;;;;;;;4.10;2.43;;;13.00;98.00;;;;;;4936835;29;20486;-64
2024/03/10 10:50:35;;;;;;;4.00;2.40;;;13.00;98.00;;;;;;4953199;29;20551;-64
2024/03/10 10:53:06;;;;;;;3.27;2.27;;;12.90;98.00;;;;;;4953048;29;20465;-65
2024/03/10 10:55:34;;;;;;;3.13;2.23;;;12.80;98.00;;;;;;4953108;29;20461;-65
2024/03/10 10:58:05;;;;;;;3.17;2.30;;;12.80;98.00;;;;;;4952932;29;20461;-65
2024/03/10 11:00:33;;;;;;;3.83;2.30;;;12.70;98.00;;;;;;4956685;28;20454;-66
2024/03/10 11:03:24;;;;;;;2.90;2.20;;;12.80;98.00;;;;;;4956649;29;20454;-65
2024/03/10 11:06:26;;;;;;;4.83;2.40;;;12.80;98.00;;;;;;4952745;29;20821;-65
2024/03/10 11:08:56;;;;;;;3.80;2.40;;;12.90;98.00;;;;;;4957724;28;20513;-65
2024/03/10 11:13:52;;;;;;;4.57;2.50;;;12.90;98.00;;;;;;4974708;28;20982;-62
2024/03/10 11:16:23;;;;;;;4.00;2.47;;;12.90;98.00;;;;;;4976001;28;20477;-63
2024/03/10 11:18:51;;;;;;;3.40;2.43;;;12.90;98.00;;;;;;4975768;28;20551;-63
2024/03/10 11:21:19;;;;;;;3.83;2.20;;;12.80;98.00;;;;;;4975956;28;20463;-63
2024/03/10 11:23:47;;;;;;;4.10;2.57;;;12.90;98.00;;;;;;4975868;28;20469;-62
2024/03/10 11:26:20;;;;;;;4.83;2.80;;;12.90;98.00;;;;;;4975755;28;20468;-63
2024/03/10 11:28:49;;;;;;;4.20;2.50;;;12.90;98.00;;;;;;4958287;28;21054;-63
2024/03/10 11:31:19;;;;;;;4.20;2.10;;;12.90;98.00;;;;;;4975469;28;20552;-63
2024/03/10 11:33:48;;;;;;;4.57;2.60;;;13.00;98.00;;;;;;4975740;28;20483;-63
2024/03/10 11:36:15;;;;;;;6.57;2.70;;;13.00;98.00;;;;;;4975509;28;20449;-63
2024/03/10 11:38:43;;;;;;;4.20;2.50;;;13.00;98.00;;;;;;4975742;28;20468;-63
2024/03/10 11:41:10;;;;;;;3.47;2.30;;;13.20;98.00;;;;;;4975382;28;20488;-63
2024/03/10 11:43:41;;;;;;;7.10;3.27;;;13.20;98.00;;;;;;4975504;28;20453;-63
2024/03/10 11:46:17;;;;;;;4.27;2.67;;;13.50;98.00;;;;;;4975349;28;20453;-63
2024/03/10 11:48:47;;;;;;;4.03;2.57;;;13.60;98.00;;;;;;4975421;28;20459;-63
2024/03/10 11:51:15;;;;;;;5.53;2.77;;;13.70;98.00;;;;;;4975179;28;20517;-63
2024/03/10 11:53:42;;;;;;;3.60;2.27;;;13.80;98.00;;;;;;4975230;28;20461;-63
2024/03/10 11:56:10;;;;;;;5.57;2.57;;;13.80;98.00;;;;;;4974779;28;20454;-62
2024/03/10 11:58:38;;;;;;;3.80;2.40;;;13.80;98.00;;;;;;4958287;28;21046;-62
2024/03/10 12:01:08;;;;;;;7.17;2.47;;;14.20;98.00;;;;;;4974897;28;20887;-62
2024/03/10 12:03:36;;;;;;;4.57;2.53;;;14.60;98.00;;;;;;4975443;28;20465;-63
2024/03/10 12:06:05;;;;;;;3.03;2.30;;;14.80;98.00;;;;;;4974961;28;20457;-63
2024/03/10 12:08:33;;;;;;;3.23;2.30;;;14.70;98.00;;;;;;4957966;28;20464;-63
2024/03/10 12:11:02;;;;;;;2.97;2.13;;;14.70;98.00;;;;;;4974071;28;20485;-63
2024/03/10 12:13:30;;;;;;;3.33;2.30;;;14.70;98.00;;;;;;4974838;28;20468;-63
2024/03/10 12:16:01;;;;;;;4.50;2.70;;;14.80;98.00;;;;;;4974782;28;20493;-63
2024/03/10 12:18:29;;;;;;;3.60;2.37;;;14.90;98.00;;;;;;4957835;28;20927;-63
2024/03/10 12:20:59;;;;;;;2.83;2.10;;;14.80;98.00;;;;;;4974740;28;20461;-63
2024/03/10 12:23:26;;;;;;;2.70;2.10;;;14.80;98.00;;;;;;4974924;28;20744;-63
2024/03/10 12:25:53;;;;;;;3.93;2.27;;;14.60;98.00;;;;;;4974804;28;20457;-63
2024/03/10 12:28:20;;;;;;;3.50;2.40;;;14.40;98.00;;;;;;4974771;28;20456;-63
2024/03/10 12:30:47;;;;;;;4.57;2.57;;;14.30;98.00;;;;;;4974509;28;20485;-63
2024/03/10 12:33:16;;;;;;;5.70;3.17;;;14.20;98.00;;;;;;4974455;28;20457;-63
2024/03/10 12:35:43;;;;;;;5.77;3.43;;;14.20;98.00;;;;;;4974470;28;20542;-63
2024/03/10 12:38:13;;;;;;;3.93;2.60;;;14.10;98.00;;;;;;4974733;28;20465;-63
2024/03/10 12:40:41;;;;;;;4.30;2.50;;;14.10;98.00;;;;;;4974489;28;20878;-63
2024/03/10 12:43:08;;;;;;;4.87;2.90;;;14.00;98.00;;;;;;4974565;28;20907;-63
2024/03/10 12:45:35;;;;;;;3.50;2.57;;;14.20;98.00;;;;;;4974490;28;20461;-63
2024/03/10 12:48:03;;;;;;;4.60;2.47;;;14.10;98.00;;;;;;4974670;28;20449;-63
2024/03/10 12:50:32;;;;;;;5.20;2.50;;;14.10;98.00;;;;;;4974330;28;20485;-63
2024/03/10 12:53:00;;;;;;;3.60;2.67;;;14.10;98.00;;;;;;4957457;28;20536;-63
2024/03/10 12:55:27;;;;;;;4.10;2.73;;;14.20;98.00;;;;;;4974354;28;20472;-63
2024/03/10 12:57:56;;;;;;;8.10;3.17;;;14.30;98.00;;;;;;4974199;28;20854;-63
2024/03/10 13:00:30;;;;;;;4.47;2.90;;;14.50;98.00;;;;;;4973962;28;20548;-63
2024/03/10 13:02:58;;;;;;;2.57;2.03;;;14.50;98.00;;;;;;4974210;28;20455;-63
2024/03/10 13:05:27;;;;;;;3.57;2.60;;;14.70;98.00;;;;;;4974160;28;20454;-63
2024/03/10 13:07:57;;;;;;;3.70;2.60;;;14.80;98.00;;;;;;4974048;28;20980;-63
2024/03/10 13:10:25;;;;;;;3.40;2.37;;;14.70;98.00;;;;;;4973943;28;20489;-63
2024/03/10 13:12:52;;;;;;;4.53;2.60;;;14.70;98.00;;;;;;4973959;28;21001;-63
2024/03/10 13:15:20;;;;;;;4.43;2.70;;;14.70;98.00;;;;;;4974764;28;20457;-63
2024/03/10 13:17:47;;;;;;;3.10;2.20;;;14.60;98.00;;;;;;4974750;28;20476;-63
2024/03/10 13:20:16;;;;;;;3.70;2.67;;;14.50;98.00;;;;;;4974347;28;20461;-63